South Labrador Sea - southeastern half: Past 24 Hour Conditions

 

Blanc-Sablon Airport

05:00 PM AST 27 August 2014
This table is a summary of hourly weather conditions for the past 24 hours.
Date / Time
(AST)
Wind(knots) Conditions Visibility(km) Pressure(kPa) Air tempC) Relative humidity(%) Dew pointC)
27 August 2014
17:00 N 8 gust 16 Mostly Cloudy 24 100.8 13 71 8
16:00 NNE 16 Mostly Cloudy 24 100.6 14 74 9
15:00 N 19 gust 28 Mostly Cloudy 24 100.4 13 80 10
14:00 N 18 gust 24 Light Rain 24 100.3 13 84 10
13:00 NW 9 Fog 3 100.2 14 99 14
12:00 W 5 Fog 0.8 100.0 13 99 13
11:00 SW 6 Fog 0.4 100.0 13 99 13
10:00 WSW 8 Fog 0.4 100.0 13 99 13
9:00 W 10 Light Rainshower 0.2 100.0 12 99 11
8:00 SW 8 Thunderstorm with light rainshowers 0.2 100.0 13 99 13
7:00 SW 5 Light Rainshower 0.8 100.0 13 99 13
6:00 W 6 Fog 0.4 100.0 14 99 14
5:00 W 9 Fog 0.2 100.1 14 99 13
4:00 WSW 10 gust 17 Fog 0.2 100.1 13 99 13
3:00 SW 9 gust 18 Fog 0.2 100.2 13 99 13
2:00 WSW 10 Fog 0.2 100.3 13 99 13
1:00 WSW 11 Fog 2 100.5 14 99 14
0:00 WSW 7 Fog 0.2 100.5 14 99 14
26 August 2014
23:00 W 6 Fog 0.2 100.6 14 99 13
22:00 SW 5 Fog 0.2 100.7 13 99 13
21:00 SW 9 Light Drizzle 0.2 100.8 13 99 13
20:00 S 11 Light Drizzle 0.2 100.8 14 99 13
19:00 S 9 Light Drizzle 1 100.9 15 99 14
18:00 SSE 7 Fog 2 101.0 15 98 14
17:00 SSE 7 Cloudy 13 101.1 15 90 14
 
Map of Atlantic - Newfoundland marine weather areas Southwestern Grand Banks - 44138 Banquereau - 44139 Tail of the Bank - 44140 Nickerson Bank - 44251 Northeast Burgeo Bank - 44255 Blanc-Sablon Airport Cap Whittle Chevery Natashquan Airport Heath Point Miscou Island Grand Étang Ingonish Beach North Mountain St.Paul Island J.A. Douglas McCurdy Sydney Airport Charlottetown Airport East Point North Cape Argentia Bonavista Burgeo Cape Race Corner Brook Daniel's Harbour Englee Ferolle Point La Scie Port aux Basques Rocky Harbour Sagona Island St. Anthony Airport St. John's Int'l Airport St. Lawrence Stephenville Airport Twillingate Winterland Wreckhouse Cartwright Airport Mary's Harbour Grates Cove Pool's Island Marticot Island Long Pond Îles de la Madeleine Airport
Legend: buoyBuoy land stationLand Station